Portada
METAR-TAF:

METAR-TAF

Aeropuertos :

Souillac

Brive-la-Gaillarde, Francia

latitud: 45-02-28N, longitud: 001-28-59E, altitud: 311 m

Observación

El informe se hizo hace 18 minutos, a las 08:00 UTC
Viento calma
Temperatura 3°C
Humedad 87%
Presión 1032 hPa
Visibilidad 10 km o más
sin nubes por debajo de 1500 m y sin presencia de cumulonimbus.

METAR: LFSL 220800Z AUTO 00000KT CAVOK 03/01 Q1032 NOSIG

Hora: 09:18 (08:18 UTC)

Pronóstico

El informe se hizo hace 3 horas y 18 minutos, a las 05:00 UTC
Pronóstico válido del 22 a las 06 UTC al 22 a las 15 UTC
Viento 2 kt con dirección variable
Visibilidad 10 km o más
sin nubes por debajo de 1500 m y sin presencia de cumulonimbus.

TAF: LFSL 220500Z 2206/2215 VRB02KT CAVOK

Observaciones y pronósticos meteorológicos de más de 4000 aeropuertos (mensajes METAR y TAF).

Los puntos amarillos y rojos representan las estaciones disponibles.

Ponga el ratón en el punto deseado para ver el nombre de la estación.

Haga clic para ver las observaciones y los pronósticos meteorológicos.

Para cambiar el mapa : haga clic en los botones verdes con una cruz de color negro para hacer un zoom, en el botón verde con un guión para alejar o en las flechas verdes para mapas adyacentes.


METAR-TAF: